Time;durP1;ratioP1;P1;durP2;ratioP2;P2;SDS_P1;SDS_P2;PMS_P1;PMS_P2;Temp;Humidity;BMP_temperature;BMP_pressure;BME280_temperature;BME280_humidity;BME280_pressure;Samples;Min_cycle;Max_cycle;Signal;HPM_P1;HPM_P2
2022/12/10 00:02:26;;;;;;;90.88;35.20;;;;;;;-3.23;100.00;100675.09;5229071;28;20461;-73
2022/12/10 00:04:57;;;;;;;100.23;36.47;;;;;;;-3.16;100.00;100682.75;5223416;28;20399;-73
2022/12/10 00:07:29;;;;;;;89.00;35.57;;;;;;;-3.23;100.00;100680.31;5226024;28;20098;-73
2022/12/10 00:10:00;;;;;;;102.43;36.78;;;;;;;-3.25;100.00;100685.56;5226948;28;20037;-73
2022/12/10 00:12:31;;;;;;;88.63;34.67;;;;;;;-3.21;100.00;100684.59;5224160;28;20043;-72
2022/12/10 00:15:03;;;;;;;91.27;35.47;;;;;;;-3.26;100.00;100689.09;5226884;28;20037;-73
2022/12/10 00:17:34;;;;;;;97.30;37.50;;;;;;;-3.17;100.00;100693.22;5226408;28;20033;-73
2022/12/10 00:20:06;;;;;;;98.90;36.47;;;;;;;-3.17;100.00;100695.84;5224070;28;20033;-72
2022/12/10 00:22:37;;;;;;;98.90;35.75;;;;;;;-3.24;100.00;100699.47;5226553;28;20191;-71
2022/12/10 00:25:08;;;;;;;100.53;37.43;;;;;;;-3.23;100.00;100701.19;5227705;28;20040;-73
2022/12/10 00:27:40;;;;;;;99.77;36.77;;;;;;;-3.27;100.00;100695.19;5226203;28;20030;-73
2022/12/10 00:30:11;;;;;;;99.87;39.23;;;;;;;-3.25;100.00;100706.44;5225636;28;20498;-72
2022/12/10 00:32:43;;;;;;;100.65;38.00;;;;;;;-3.24;100.00;100700.34;5226809;28;20404;-73
2022/12/10 00:35:14;;;;;;;104.43;38.05;;;;;;;-3.20;100.00;100704.59;5228042;28;20037;-72
2022/12/10 00:37:45;;;;;;;100.72;38.65;;;;;;;-3.25;100.00;100703.81;5224429;28;20695;-73
2022/12/10 00:40:17;;;;;;;95.28;37.22;;;;;;;-3.28;100.00;100705.63;5225692;28;20037;-73
2022/12/10 00:42:48;;;;;;;95.13;38.00;;;;;;;-3.27;100.00;100705.63;5226411;28;20509;-73
2022/12/10 00:45:19;;;;;;;105.67;39.70;;;;;;;-3.22;100.00;100705.50;5228846;28;20622;-73
2022/12/10 00:47:51;;;;;;;93.43;37.77;;;;;;;-3.29;100.00;100710.00;5227605;28;20040;-72
2022/12/10 00:50:22;;;;;;;91.37;36.30;;;;;;;-3.22;100.00;100695.06;5230986;28;20482;-72
2022/12/10 00:52:53;;;;;;;92.80;36.70;;;;;;;-3.22;100.00;100695.94;5229815;28;20537;-72
2022/12/10 00:55:24;;;;;;;101.32;39.47;;;;;;;-3.25;100.00;100682.97;5231091;28;20144;-72
2022/12/10 00:57:56;;;;;;;105.83;39.67;;;;;;;-3.23;100.00;100690.75;5230194;28;20146;-72
2022/12/10 01:00:27;;;;;;;99.65;38.50;;;;;;;-3.27;100.00;100695.19;5228585;28;20551;-72
2022/12/10 01:02:58;;;;;;;99.43;38.47;;;;;;;-3.30;100.00;100686.56;5228290;28;20029;-72
2022/12/10 01:05:30;;;;;;;102.93;38.55;;;;;;;-3.29;100.00;100678.72;5228444;28;20029;-72
2022/12/10 01:08:01;;;;;;;95.50;38.03;;;;;;;-3.37;100.00;100681.47;5227255;28;20037;-72
2022/12/10 01:10:32;;;;;;;95.00;35.73;;;;;;;-3.29;100.00;100685.69;5225663;28;20045;-72
2022/12/10 01:13:04;;;;;;;100.63;40.47;;;;;;;-3.39;100.00;100688.47;5227363;28;20703;-72
2022/12/10 01:15:39;;;;;;;97.40;39.70;;;;;;;-3.35;100.00;100695.34;5228542;28;20037;-72
2022/12/10 01:18:10;;;;;;;98.53;37.00;;;;;;;-3.33;100.00;100692.72;5224058;28;20034;-72
2022/12/10 01:20:41;;;;;;;113.20;42.30;;;;;;;-3.35;100.00;100692.75;5226520;28;20052;-72
2022/12/10 01:23:13;;;;;;;94.43;38.33;;;;;;;-3.33;100.00;100691.84;5227833;28;20025;-72
2022/12/10 01:25:44;;;;;;;107.88;39.65;;;;;;;-3.37;100.00;100702.34;5224238;28;20159;-72
2022/12/10 01:28:15;;;;;;;100.23;38.83;;;;;;;-3.46;100.00;100697.31;5225866;28;20415;-72
2022/12/10 01:30:48;;;;;;;99.87;39.10;;;;;;;-3.40;100.00;100710.22;5236501;28;20077;-72
2022/12/10 01:33:19;;;;;;;98.70;38.70;;;;;;;-3.42;100.00;100703.34;5219304;28;20033;-72
2022/12/10 01:35:51;;;;;;;99.85;38.50;;;;;;;-3.36;100.00;100714.50;5223212;28;20088;-72
2022/12/10 01:38:22;;;;;;;115.90;41.17;;;;;;;-3.40;100.00;100707.63;5229673;28;20034;-72
2022/12/10 01:40:53;;;;;;;122.97;41.73;;;;;;;-3.36;100.00;100717.13;5224469;28;20041;-72
2022/12/10 01:43:25;;;;;;;118.07;41.05;;;;;;;-3.33;100.00;100716.19;5220101;28;20543;-72
2022/12/10 01:45:56;;;;;;;124.93;43.20;;;;;;;-3.33;100.00;100729.22;5225175;28;20428;-72
2022/12/10 01:48:27;;;;;;;134.83;43.43;;;;;;;-3.30;100.00;100729.16;5225281;28;20280;-72
2022/12/10 01:50:59;;;;;;;139.80;45.07;;;;;;;-3.30;100.00;100720.47;5222078;28;20033;-72
2022/12/10 01:53:31;;;;;;;128.97;42.83;;;;;;;-3.19;100.00;100721.94;5228193;28;20033;-72
2022/12/10 01:56:02;;;;;;;135.10;42.77;;;;;;;-3.20;100.00;100720.25;5227868;28;20064;-72
2022/12/10 01:58:33;;;;;;;121.13;41.23;;;;;;;-3.21;100.00;100717.66;5226211;28;20144;-72
2022/12/10 02:01:16;;;;;;;130.03;43.27;;;;;;;-3.20;100.00;100719.41;5225460;28;20053;-72
2022/12/10 02:04:14;;;;;;;129.68;44.33;;;;;;;-3.21;100.00;100717.66;5226117;28;20033;-72
2022/12/10 02:06:55;;;;;;;137.40;46.37;;;;;;;-3.20;100.00;100719.41;5231416;28;20434;-72
2022/12/10 02:09:52;;;;;;;137.63;44.47;;;;;;;-3.19;100.00;100724.56;5234116;28;20037;-72
2022/12/10 02:12:33;;;;;;;148.97;44.63;;;;;;;-3.18;100.00;100715.84;5231374;28;20037;-72
2022/12/10 02:15:16;;;;;;;138.32;44.38;;;;;;;-3.10;100.00;100720.91;5228721;28;20116;-72
2022/12/10 02:18:18;;;;;;;143.18;45.95;;;;;;;-3.06;100.00;100716.47;5228335;28;20357;-72
2022/12/10 02:20:54;;;;;;;142.23;44.50;;;;;;;-3.04;100.00;100719.91;5225582;28;20106;-72
2022/12/10 02:23:40;;;;;;;152.48;47.15;;;;;;;-3.02;100.00;100725.97;5233551;28;20053;-72
2022/12/10 02:26:41;;;;;;;143.48;46.35;;;;;;;-2.99;100.00;100718.91;5230186;28;20025;-72
2022/12/10 02:29:16;;;;;;;151.90;45.53;;;;;;;-2.49;100.00;100712.50;5231306;28;20480;-72
2022/12/10 02:31:55;;;;;;;133.52;46.45;;;;;;;-2.15;100.00;100711.66;5226162;28;20048;-72
2022/12/10 02:34:30;;;;;;;123.10;42.20;;;;;;;-2.17;100.00;100716.94;5230152;28;20399;-73
2022/12/10 02:37:06;;;;;;;123.72;43.40;;;;;;;-2.18;100.00;100717.84;5231765;28;20030;-72
2022/12/10 02:39:42;;;;;;;119.68;41.78;;;;;;;-2.22;100.00;100711.84;5232266;28;20046;-72
2022/12/10 02:42:16;;;;;;;127.47;42.53;;;;;;;-2.27;100.00;100713.69;5231084;28;20025;-70
2022/12/10 02:44:49;;;;;;;128.10;43.85;;;;;;;-2.31;100.00;100706.84;5228460;28;20140;-71
2022/12/10 02:47:20;;;;;;;120.57;42.75;;;;;;;-2.35;100.00;100707.81;5228051;28;20120;-70
2022/12/10 02:49:55;;;;;;;121.32;41.88;;;;;;;-2.42;100.00;100703.63;5226698;28;20033;-71
2022/12/10 02:52:27;;;;;;;123.20;42.20;;;;;;;-2.48;100.00;100696.81;5226848;28;20102;-71
2022/12/10 02:54:58;;;;;;;121.30;41.57;;;;;;;-2.52;100.00;100704.78;5231532;28;20025;-71
2022/12/10 02:57:39;;;;;;;120.90;40.38;;;;;;;-2.59;100.00;100711.88;5232380;28;20625;-71
2022/12/10 03:00:16;;;;;;;121.10;42.67;;;;;;;-2.63;100.00;100713.75;5230921;28;20026;-71
2022/12/10 03:03:24;;;;;;;122.32;41.30;;;;;;;-2.53;100.00;100722.22;5229820;28;20570;-71
2022/12/10 03:06:05;;;;;;;138.48;44.22;;;;;;;-2.59;100.00;100718.00;5233097;28;20021;-71
2022/12/10 03:08:48;;;;;;;121.28;41.88;;;;;;;-2.58;100.00;100730.13;5230145;28;20152;-71
2022/12/10 03:11:22;;;;;;;137.13;42.05;;;;;;;-2.59;100.00;100719.72;5229329;28;20746;-70
2022/12/10 03:14:04;;;;;;;131.65;43.00;;;;;;;-2.58;100.00;100724.06;5229156;28;20033;-71
2022/12/10 03:16:41;;;;;;;129.23;41.90;;;;;;;-2.59;100.00;100723.22;5230055;28;20021;-71
2022/12/10 03:19:20;;;;;;;125.03;41.78;;;;;;;-2.50;100.00;100723.88;5231712;28;20506;-71
2022/12/10 03:21:53;;;;;;;133.18;42.22;;;;;;;-2.56;100.00;100720.50;5230677;28;20037;-70
2022/12/10 03:24:27;;;;;;;129.93;41.50;;;;;;;-2.56;100.00;100720.50;5232544;28;20112;-71
2022/12/10 03:26:59;;;;;;;131.70;43.47;;;;;;;-2.52;100.00;100718.69;5230468;28;20048;-70
2022/12/10 03:29:38;;;;;;;122.93;40.20;;;;;;;-2.53;100.00;100711.75;5233914;28;20034;-71
2022/12/10 03:32:10;;;;;;;130.65;41.40;;;;;;;-2.54;100.00;100710.03;5230690;28;20032;-71
2022/12/10 03:34:44;;;;;;;125.57;40.88;;;;;;;-2.51;100.00;100720.41;5222624;28;20053;-71
2022/12/10 03:37:15;;;;;;;121.43;40.80;;;;;;;-2.53;100.00;100727.44;5226311;28;20246;-71
2022/12/10 03:39:47;;;;;;;121.15;40.35;;;;;;;-2.48;100.00;100716.84;5232414;28;20506;-71
2022/12/10 03:42:18;;;;;;;120.15;39.90;;;;;;;-2.49;100.00;100725.56;5228577;28;21978;-71
2022/12/10 03:44:51;;;;;;;121.95;39.70;;;;;;;-2.51;100.00;100719.53;5232302;28;20033;-70
2022/12/10 03:47:23;;;;;;;128.93;41.33;;;;;;;-2.50;100.00;100735.16;5229583;28;20029;-71
2022/12/10 03:49:55;;;;;;;130.30;41.55;;;;;;;-2.49;100.00;100721.22;5232807;28;20036;-71
2022/12/10 03:52:26;;;;;;;133.95;42.63;;;;;;;-2.45;100.00;100735.94;5230276;28;21103;-71
2022/12/10 03:54:58;;;;;;;125.50;41.65;;;;;;;-2.41;100.00;100732.34;5230105;28;20758;-71
2022/12/10 03:57:29;;;;;;;132.63;43.33;;;;;;;-2.43;100.00;100730.66;5227871;28;20025;-70
2022/12/10 04:00:01;;;;;;;143.65;43.88;;;;;;;-2.40;100.00;100726.22;5231367;28;20037;-71
2022/12/10 04:02:33;;;;;;;136.23;42.60;;;;;;;-2.33;100.00;100733.91;5229550;28;20170;-71
2022/12/10 04:05:06;;;;;;;125.35;42.60;;;;;;;-2.36;100.00;100732.22;5231379;28;20040;-70
2022/12/10 04:07:37;;;;;;;127.45;42.78;;;;;;;-2.36;100.00;100740.06;5226224;28;20037;-70
2022/12/10 04:10:09;;;;;;;128.75;42.67;;;;;;;-2.37;100.00;100730.50;5229183;28;20368;-71
2022/12/10 04:12:40;;;;;;;127.82;40.97;;;;;;;-2.35;100.00;100727.88;5229533;28;20060;-71
2022/12/10 04:18:01;;;;;;;127.47;41.97;;;;;;;-2.33;100.00;100737.38;5230673;28;20041;-73
2022/12/10 04:29:03;;;;;;;131.30;42.53;;;;;;;-2.23;100.00;100724.94;5229258;28;20395;-71
2022/12/10 04:31:34;;;;;;;133.05;42.45;;;;;;;-2.21;100.00;100726.59;5228553;28;20388;-71
2022/12/10 04:34:06;;;;;;;138.82;43.17;;;;;;;-2.20;100.00;100733.56;5229351;28;20036;-71
2022/12/10 04:36:37;;;;;;;131.80;40.67;;;;;;;-2.19;100.00;100737.91;5232204;28;20391;-71
2022/12/10 04:39:11;;;;;;;142.05;42.65;;;;;;;-2.18;100.00;100733.53;5231425;28;20104;-71
2022/12/10 04:41:45;;;;;;;140.88;42.92;;;;;;;-2.13;100.00;100743.84;5229026;28;20616;-71
2022/12/10 04:44:18;;;;;;;132.77;41.50;;;;;;;-2.11;100.00;100744.66;5229421;28;20033;-71
2022/12/10 04:46:50;;;;;;;130.30;40.40;;;;;;;-2.14;100.00;100744.75;5233251;28;20075;-71
2022/12/10 04:49:22;;;;;;;122.03;40.58;;;;;;;-2.03;100.00;100745.34;5229072;28;20124;-71
2022/12/10 04:51:53;;;;;;;128.40;41.05;;;;;;;-2.11;100.00;100747.28;5225827;28;20041;-71
2022/12/10 04:54:26;;;;;;;128.18;40.50;;;;;;;-2.08;100.00;100752.44;5227181;28;20030;-71
2022/12/10 04:56:57;;;;;;;117.60;40.42;;;;;;;-1.99;100.00;100750.44;5226712;28;20049;-71
2022/12/10 04:59:28;;;;;;;121.28;39.03;;;;;;;-2.06;100.00;100759.34;5225303;28;20064;-71
2022/12/10 05:01:59;;;;;;;126.63;40.80;;;;;;;-2.03;100.00;100753.19;5225329;28;20057;-71
2022/12/10 05:04:31;;;;;;;120.18;39.17;;;;;;;-2.08;100.00;100749.81;5224941;28;20041;-71
2022/12/10 05:07:02;;;;;;;116.28;39.78;;;;;;;-2.06;100.00;100755.88;5226026;28;20033;-70
2022/12/10 05:09:34;;;;;;;120.25;39.75;;;;;;;-2.06;100.00;100750.63;5228402;28;20041;-71
2022/12/10 05:12:06;;;;;;;127.88;38.95;;;;;;;-2.12;100.00;100746.44;5225404;28;20163;-71
2022/12/10 05:14:37;;;;;;;123.75;39.72;;;;;;;-2.04;100.00;100747.06;5227891;28;20038;-71
2022/12/10 05:17:08;;;;;;;114.13;37.70;;;;;;;-2.09;100.00;100750.72;5227018;28;20038;-71
2022/12/10 05:19:39;;;;;;;122.28;38.30;;;;;;;-2.07;100.00;100749.78;5224327;28;20376;-71
2022/12/10 05:25:01;;;;;;;119.85;38.33;;;;;;;-2.21;100.00;100752.72;5226795;28;20088;-71
2022/12/10 05:27:33;;;;;;;117.20;38.03;;;;;;;-2.21;100.00;100749.28;5225321;28;20116;-71
2022/12/10 05:30:05;;;;;;;115.40;37.15;;;;;;;-2.24;100.00;100749.38;5224401;28;20469;-71
2022/12/10 05:32:37;;;;;;;118.35;38.65;;;;;;;-2.26;100.00;100757.25;5223276;28;20074;-72
2022/12/10 05:35:08;;;;;;;121.85;39.17;;;;;;;-2.25;100.00;100756.31;5223209;28;20037;-72
2022/12/10 05:37:39;;;;;;;126.68;38.08;;;;;;;-2.25;100.00;100752.88;5227026;28;20085;-72
2022/12/10 05:40:11;;;;;;;120.40;37.63;;;;;;;-2.27;100.00;100752.91;5226595;28;20442;-72
2022/12/10 05:42:42;;;;;;;120.00;38.42;;;;;;;-2.25;100.00;100747.63;5225917;28;20087;-72
2022/12/10 05:45:14;;;;;;;116.03;37.67;;;;;;;-2.28;100.00;100751.19;5224202;28;20033;-72
2022/12/10 05:47:45;;;;;;;127.78;41.03;;;;;;;-2.29;100.00;100746.00;5224851;28;20099;-72
2022/12/10 05:50:16;;;;;;;120.43;37.83;;;;;;;-2.24;100.00;100751.97;5223399;28;20402;-72
2022/12/10 05:52:50;;;;;;;125.82;38.83;;;;;;;-2.15;100.00;100750.88;5226250;28;20036;-72
2022/12/10 05:55:21;;;;;;;133.75;38.90;;;;;;;-2.17;100.00;100750.91;5190473;28;1047176;-72
2022/12/10 05:57:53;;;;;;;122.50;38.95;;;;;;;-2.13;100.00;100756.91;5225004;28;21919;-72
2022/12/10 06:00:24;;;;;;;124.38;38.08;;;;;;;-2.18;100.00;100760.50;5228700;28;20111;-72
2022/12/10 06:02:55;;;;;;;115.72;36.33;;;;;;;-2.18;100.00;100755.28;5224939;28;20454;-72
2022/12/10 06:05:27;;;;;;;110.38;34.90;;;;;;;-2.22;100.00;100758.88;5223269;28;20144;-73
2022/12/10 06:07:58;;;;;;;121.63;36.58;;;;;;;-2.07;100.00;100756.75;5226619;28;20036;-72
2022/12/10 06:10:29;;;;;;;120.95;36.35;;;;;;;-2.15;100.00;100763.94;5227559;28;20029;-72
2022/12/10 06:13:02;;;;;;;123.25;36.65;;;;;;;-2.12;100.00;100763.88;5227191;28;20035;-72
2022/12/10 06:15:34;;;;;;;121.40;37.22;;;;;;;-2.15;100.00;100769.16;5227766;28;20041;-72
2022/12/10 06:18:06;;;;;;;121.70;38.45;;;;;;;-2.11;100.00;100765.56;5224881;28;20998;-72
2022/12/10 06:20:38;;;;;;;128.68;37.15;;;;;;;-2.04;100.00;100762.75;5222007;28;20032;-73
2022/12/10 06:23:10;;;;;;;127.45;37.10;;;;;;;-2.02;100.00;100771.41;5221781;28;20083;-72
2022/12/10 06:25:41;;;;;;;117.15;37.60;;;;;;;-2.04;100.00;100767.13;5227450;28;20029;-73
2022/12/10 06:28:12;;;;;;;121.22;37.10;;;;;;;-2.06;100.00;100771.56;5226459;28;20495;-72
2022/12/10 06:30:43;;;;;;;116.05;35.95;;;;;;;-2.04;100.00;100768.00;5226625;28;20451;-72
2022/12/10 06:33:15;;;;;;;116.63;38.08;;;;;;;-2.07;100.00;100765.47;5227049;28;20042;-72
2022/12/10 06:35:46;;;;;;;123.95;36.88;;;;;;;-2.08;100.00;100766.34;5221842;28;20067;-72
2022/12/10 06:38:17;;;;;;;115.03;35.10;;;;;;;-2.04;100.00;100769.75;5224363;28;20037;-72
2022/12/10 06:40:49;;;;;;;113.63;34.72;;;;;;;-2.08;100.00;100762.91;5225356;28;20033;-72
2022/12/10 06:43:20;;;;;;;122.05;36.40;;;;;;;-2.02;100.00;100765.34;5228188;28;20855;-72
2022/12/10 06:45:52;;;;;;;127.22;34.88;;;;;;;-2.03;100.00;100767.09;5224203;28;20380;-72
2022/12/10 06:48:23;;;;;;;114.78;37.97;;;;;;;-1.98;100.00;100770.44;5221883;28;20033;-72
2022/12/10 06:50:55;;;;;;;121.05;38.65;;;;;;;-2.02;100.00;100771.41;5223001;28;20033;-72
2022/12/10 06:53:26;;;;;;;111.60;36.05;;;;;;;-2.03;100.00;100788.03;5228758;28;20072;-72
2022/12/10 06:55:59;;;;;;;124.75;36.95;;;;;;;-2.08;100.00;100782.03;5226510;28;20076;-72
2022/12/10 06:58:33;;;;;;;123.35;37.38;;;;;;;-2.10;100.00;100793.44;5226536;28;20052;-72
2022/12/10 07:01:12;;;;;;;132.38;39.15;;;;;;;-2.08;100.00;100789.03;5226461;28;20036;-72
2022/12/10 07:03:43;;;;;;;138.73;41.55;;;;;;;-2.03;100.00;100795.88;5225869;28;20479;-72
2022/12/10 07:06:15;;;;;;;140.55;45.42;;;;;;;-1.98;100.00;100804.44;5231617;28;20036;-72
2022/12/10 07:08:47;;;;;;;139.93;41.33;;;;;;;-2.04;100.00;100804.59;5230448;28;20029;-72
2022/12/10 07:11:22;;;;;;;143.90;50.30;;;;;;;-1.94;100.00;100807.81;5228389;28;20029;-72
2022/12/10 07:13:53;;;;;;;133.32;49.70;;;;;;;-1.95;100.00;100803.50;5229207;28;20037;-73
2022/12/10 07:16:27;;;;;;;133.95;44.70;;;;;;;-1.95;100.00;100800.06;5230753;28;20040;-72
2022/12/10 07:19:01;;;;;;;141.65;41.17;;;;;;;-1.90;100.00;100800.78;5227817;28;20116;-72
2022/12/10 07:21:35;;;;;;;133.03;42.07;;;;;;;-1.91;100.00;100799.91;5227792;28;20033;-72
2022/12/10 07:24:10;;;;;;;134.00;40.78;;;;;;;-1.95;100.00;100800.06;5227113;28;20437;-72
2022/12/10 07:26:44;;;;;;;128.65;40.58;;;;;;;-1.91;100.00;100807.75;5230273;28;20037;-72
2022/12/10 07:29:18;;;;;;;129.18;40.15;;;;;;;-1.93;100.00;100808.72;5231576;28;20465;-72
2022/12/10 07:31:49;;;;;;;126.88;40.80;;;;;;;-1.92;100.00;100816.50;5233311;28;20108;-72
2022/12/10 07:34:20;;;;;;;127.57;40.58;;;;;;;-1.92;100.00;100815.63;5227776;28;20039;-73
2022/12/10 07:36:52;;;;;;;128.18;40.85;;;;;;;-1.92;100.00;100813.88;5229682;28;20029;-72
2022/12/10 07:39:23;;;;;;;129.00;39.63;;;;;;;-1.89;100.00;100815.56;5225698;28;20417;-72
2022/12/10 07:41:55;;;;;;;127.82;38.65;;;;;;;-1.94;100.00;100820.91;5232037;28;20026;-72
2022/12/10 07:44:26;;;;;;;124.88;39.83;;;;;;;-1.88;100.00;100823.38;5226555;28;20029;-72
2022/12/10 07:46:58;;;;;;;122.85;37.78;;;;;;;-1.91;100.00;100820.00;5229032;28;20064;-72
2022/12/10 07:49:30;;;;;;;121.93;37.38;;;;;;;-1.92;100.00;100826.94;5227296;28;20087;-72
2022/12/10 07:52:01;;;;;;;129.10;39.72;;;;;;;-1.87;100.00;100825.09;5230782;28;20052;-72
2022/12/10 07:54:32;;;;;;;134.30;39.17;;;;;;;-1.92;100.00;100829.56;5230369;28;20360;-72
2022/12/10 07:57:03;;;;;;;123.65;37.25;;;;;;;-1.95;100.00;100832.28;5230540;28;20045;-72
2022/12/10 07:59:35;;;;;;;140.00;38.00;;;;;;;-1.95;100.00;100831.44;5228661;28;20034;-71
2022/12/10 08:02:08;;;;;;;130.05;39.42;;;;;;;-1.96;100.00;100822.69;5232803;28;20071;-71
2022/12/10 08:04:39;;;;;;;121.47;36.83;;;;;;;-1.96;100.00;100833.16;5230730;28;20404;-72
2022/12/10 08:07:11;;;;;;;135.50;40.10;;;;;;;-1.99;100.00;100834.09;5231153;28;20040;-73
2022/12/10 08:09:42;;;;;;;131.75;37.92;;;;;;;-2.00;100.00;100836.75;5230678;28;20256;-72
2022/12/10 08:12:13;;;;;;;120.45;37.67;;;;;;;-1.99;100.00;100838.47;5232286;28;20550;-72
2022/12/10 08:14:45;;;;;;;116.72;37.22;;;;;;;-2.00;100.00;100842.81;5229125;28;20048;-72
2022/12/10 08:17:16;;;;;;;117.53;35.30;;;;;;;-1.98;100.00;100845.41;5233290;28;20029;-72
2022/12/10 08:19:47;;;;;;;123.28;37.17;;;;;;;-2.02;100.00;100849.00;5230319;28;20032;-72
2022/12/10 08:22:19;;;;;;;126.78;38.28;;;;;;;-1.99;100.00;100854.16;5232267;28;20033;-71
2022/12/10 08:24:50;;;;;;;122.80;38.08;;;;;;;-1.90;100.00;100847.84;5229473;28;21290;-72
2022/12/10 08:27:21;;;;;;;122.55;37.35;;;;;;;-1.94;100.00;100854.03;5232773;28;20520;-72
2022/12/10 08:29:53;;;;;;;117.97;36.75;;;;;;;-1.90;100.00;100858.28;5219200;28;20135;-71
2022/12/10 08:32:24;;;;;;;120.97;37.15;;;;;;;-1.92;100.00;100863.56;5230216;28;20040;-71
2022/12/10 08:34:55;;;;;;;133.35;37.00;;;;;;;-1.84;100.00;100866.84;5232984;28;20373;-72
2022/12/10 08:37:26;;;;;;;130.25;38.42;;;;;;;-1.87;100.00;100866.94;5233433;28;20112;-72
2022/12/10 08:39:58;;;;;;;128.02;38.45;;;;;;;-1.83;100.00;100865.09;5232842;28;20025;-72
2022/12/10 08:42:29;;;;;;;129.48;39.60;;;;;;;-1.83;100.00;100868.56;5231595;28;20613;-72
2022/12/10 08:45:01;;;;;;;129.60;37.58;;;;;;;-1.80;100.00;100878.09;5232512;28;20492;-73
2022/12/10 08:47:32;;;;;;;131.27;38.88;;;;;;;-1.72;100.00;100877.91;5232616;28;20430;-72
2022/12/10 08:50:04;;;;;;;126.78;38.95;;;;;;;-1.78;100.00;100874.53;5229798;28;20042;-73
2022/12/10 08:52:35;;;;;;;124.50;39.05;;;;;;;-1.75;100.00;100883.22;5232479;28;20028;-72
2022/12/10 08:55:07;;;;;;;108.10;34.03;;;;;;;-1.77;100.00;100881.47;5232754;28;20076;-73
2022/12/10 08:57:38;;;;;;;105.40;34.53;;;;;;;-1.78;100.00;100885.00;5234092;28;20029;-71
2022/12/10 09:00:12;;;;;;;109.85;33.92;;;;;;;-1.75;100.00;100884.06;5233448;28;20360;-72
2022/12/10 09:02:43;;;;;;;118.72;37.60;;;;;;;-1.77;100.00;100891.09;5232190;28;20109;-73
2022/12/10 09:05:14;;;;;;;119.22;34.08;;;;;;;-1.75;100.00;100893.69;5232985;28;20029;-73
2022/12/10 09:07:46;;;;;;;108.30;34.40;;;;;;;-1.78;100.00;100890.25;5232330;28;20503;-72
2022/12/10 09:10:17;;;;;;;114.82;34.40;;;;;;;-1.78;100.00;100892.84;5231742;28;20110;-73
2022/12/10 09:12:48;;;;;;;109.03;32.78;;;;;;;-1.75;100.00;100893.69;5234424;28;20029;-72
2022/12/10 09:15:19;;;;;;;104.72;31.45;;;;;;;-1.74;100.00;100892.78;5232115;28;20522;-73
2022/12/10 09:17:51;;;;;;;112.78;34.40;;;;;;;-1.65;100.00;100901.25;5231104;28;20108;-73
2022/12/10 09:20:22;;;;;;;119.28;34.00;;;;;;;-1.67;100.00;100895.22;5232338;28;20083;-72
2022/12/10 09:22:54;;;;;;;123.03;35.63;;;;;;;-1.72;100.00;100896.22;5233188;28;20040;-73
2022/12/10 09:25:25;;;;;;;111.22;35.55;;;;;;;-1.69;100.00;100901.34;5231979;28;20017;-73
2022/12/10 09:27:56;;;;;;;128.65;35.85;;;;;;;-1.67;100.00;100896.94;5230128;28;20039;-73
2022/12/10 09:30:28;;;;;;;114.75;30.85;;;;;;;-1.70;100.00;100904.88;5233968;28;20075;-73
2022/12/10 09:32:59;;;;;;;102.95;30.92;;;;;;;-1.75;100.00;100893.69;5231801;28;20487;-72
2022/12/10 09:35:30;;;;;;;101.97;31.77;;;;;;;-1.75;100.00;100896.28;5232199;28;20517;-73
2022/12/10 09:38:02;;;;;;;110.13;33.08;;;;;;;-1.71;100.00;100904.00;5231538;28;20056;-72
2022/12/10 09:40:43;;;;;;;123.72;33.83;;;;;;;-1.65;100.00;100909.13;5232468;28;20032;-72
2022/12/10 09:43:26;;;;;;;102.93;32.72;;;;;;;-1.69;100.00;100910.06;5233315;28;20123;-73
2022/12/10 09:46:16;;;;;;;115.13;32.88;;;;;;;-1.66;100.00;100912.59;5230649;28;20056;-73
2022/12/10 09:48:59;;;;;;;106.38;34.50;;;;;;;-1.64;100.00;100918.66;5231272;28;20026;-73
2022/12/10 09:51:35;;;;;;;104.93;33.13;;;;;;;-1.60;100.00;100915.06;5235169;28;20056;-73
2022/12/10 09:54:29;;;;;;;106.22;32.42;;;;;;;-1.55;100.00;100917.59;5232315;28;20049;-73
2022/12/10 09:57:03;;;;;;;119.82;32.83;;;;;;;-1.54;100.00;100924.53;5230434;28;20484;-73
2022/12/10 09:59:41;;;;;;;118.50;33.42;;;;;;;-1.33;100.00;100914.41;5231451;28;20416;-73
2022/12/10 10:02:30;;;;;;;113.32;33.63;;;;;;;-1.45;100.00;100928.69;5231983;28;20033;-73
2022/12/10 10:05:12;;;;;;;98.63;31.30;;;;;;;-1.39;100.00;100929.38;5231173;28;20041;-73
2022/12/10 10:07:47;;;;;;;98.18;30.60;;;;;;;-1.39;100.00;100928.50;5230342;28;20136;-73
2022/12/10 10:10:25;;;;;;;99.63;31.42;;;;;;;-1.36;100.00;100938.91;5233454;28;20036;-72
2022/12/10 10:13:26;;;;;;;99.35;31.55;;;;;;;-1.33;100.00;100933.59;5231216;28;20034;-73
2022/12/10 10:16:20;;;;;;;305.38;131.82;;;;;;;-1.40;100.00;100942.47;5230856;28;20033;-73
2022/12/10 10:18:59;;;;;;;151.05;57.95;;;;;;;-1.45;100.00;100944.38;5231187;28;20496;-73
2022/12/10 10:21:39;;;;;;;101.47;34.03;;;;;;;-1.48;100.00;100931.34;5234375;28;20036;-73
2022/12/10 10:24:23;;;;;;;106.75;33.25;;;;;;;-1.48;100.00;100934.81;5231622;28;20029;-73
2022/12/10 10:27:01;;;;;;;100.78;31.65;;;;;;;-1.47;100.00;100941.78;5231003;28;20025;-73
2022/12/10 10:29:33;;;;;;;106.88;31.58;;;;;;;-1.48;100.00;100933.97;5235171;28;20395;-73
2022/12/10 10:32:27;;;;;;;107.57;32.45;;;;;;;-1.40;100.00;100939.88;5234453;28;20037;-73
2022/12/10 10:34:59;;;;;;;109.80;31.48;;;;;;;-1.45;100.00;100933.91;5236133;28;20033;-74
2022/12/10 10:37:40;;;;;;;110.30;32.55;;;;;;;-1.39;100.00;100934.59;5236509;28;20033;-73
2022/12/10 10:40:45;;;;;;;103.75;32.15;;;;;;;-1.32;100.00;100939.66;5235349;28;20026;-73
2022/12/10 10:43:26;;;;;;;108.05;32.75;;;;;;;-1.34;100.00;100942.34;5227059;28;21421;-73
2022/12/10 10:46:06;;;;;;;108.90;31.75;;;;;;;-1.32;100.00;100943.16;5241727;28;20416;-73
2022/12/10 10:48:37;;;;;;;113.95;34.92;;;;;;;-1.32;100.00;100923.97;5235474;28;20036;-73
2022/12/10 10:51:21;;;;;;;119.72;32.22;;;;;;;-1.28;100.00;100930.88;5234187;28;20033;-73
2022/12/10 10:53:54;;;;;;;107.05;30.75;;;;;;;-1.30;100.00;100924.81;5234084;28;20033;-73
2022/12/10 10:56:31;;;;;;;99.90;30.90;;;;;;;-1.22;100.00;100930.69;5235351;28;20080;-73
2022/12/10 10:59:27;;;;;;;112.32;33.30;;;;;;;-1.22;100.00;100928.94;5236269;28;20040;-72
2022/12/10 11:02:05;;;;;;;111.88;33.38;;;;;;;-1.16;100.00;100934.91;5234503;28;20041;-73
2022/12/10 11:04:44;;;;;;;115.03;33.95;;;;;;;-1.23;100.00;100926.34;5235157;28;20021;-73
2022/12/10 11:07:26;;;;;;;104.38;31.95;;;;;;;-1.19;100.00;100925.38;5233978;28;20040;-73
2022/12/10 11:09:58;;;;;;;107.97;30.40;;;;;;;-1.17;100.00;100922.72;5235501;28;20553;-73
2022/12/10 11:12:39;;;;;;;105.65;31.73;;;;;;;-1.12;100.00;100918.22;5233306;28;20026;-73
2022/12/10 11:15:36;;;;;;;105.07;31.30;;;;;;;-1.11;100.00;100909.44;5234883;28;20411;-72
2022/12/10 11:18:34;;;;;;;103.20;31.10;;;;;;;-1.11;100.00;100912.06;5250965;28;20052;-74
2022/12/10 11:21:12;;;;;;;96.82;29.63;;;;;;;-1.07;100.00;100916.34;5233316;28;20494;-73
2022/12/10 11:23:47;;;;;;;97.70;30.48;;;;;;;-1.18;100.00;100900.91;5234292;28;20112;-73
2022/12/10 11:26:53;;;;;;;100.68;30.95;;;;;;;-1.19;100.00;100913.16;5237354;28;20380;-73
2022/12/10 11:29:53;;;;;;;100.50;31.38;;;;;;;-1.21;100.00;100908.84;5233985;28;20052;-73
2022/12/10 11:33:08;;;;;;;100.22;31.35;;;;;;;-1.22;100.00;100910.59;5224206;28;20120;-73
2022/12/10 11:36:03;;;;;;;108.68;33.30;;;;;;;-1.19;100.00;100905.31;5210566;28;20057;-73
2022/12/10 11:39:07;;;;;;;95.55;31.60;;;;;;;-1.16;100.00;100903.50;5233855;28;20456;-73
2022/12/10 11:41:44;;;;;;;111.95;31.50;;;;;;;-1.17;100.00;100907.00;5232260;28;20029;-73
2022/12/10 11:44:24;;;;;;;95.28;30.70;;;;;;;-1.16;100.00;100912.19;5233610;28;20037;-73